Time;durP1;ratioP1;P1;durP2;ratioP2;P2;SDS_P1;SDS_P2;PMS_P1;PMS_P2;Temp;Humidity;BMP_temperature;BMP_pressure;BME280_temperature;BME280_humidity;BME280_pressure;Samples;Min_cycle;Max_cycle;Signal;HPM_P1;HPM_P2
2021/09/11 00:00:15;;;;;;;;;;;18.60;56.20;;;;;;5041341;28;88748;-45
2021/09/11 00:02:42;;;;;;;;;;;18.60;56.30;;;;;;5038258;28;89233;-45
2021/09/11 00:05:08;;;;;;;;;;;18.50;56.20;;;;;;5046114;28;88461;-45
2021/09/11 00:07:33;;;;;;;;;;;18.50;56.30;;;;;;5042322;28;87141;-45
2021/09/11 00:09:59;;;;;;;;;;;18.50;56.20;;;;;;5042481;28;89571;-45
2021/09/11 00:12:24;;;;;;;;;;;18.50;56.30;;;;;;5041345;28;87235;-45
2021/09/11 00:14:50;;;;;;;;;;;18.50;56.20;;;;;;5040935;28;87158;-45
2021/09/11 00:17:15;;;;;;;;;;;18.40;56.30;;;;;;5040650;28;87781;-46
2021/09/11 00:19:41;;;;;;;;;;;18.40;56.30;;;;;;5040983;28;88733;-45
2021/09/11 00:22:06;;;;;;;;;;;18.40;56.30;;;;;;5039795;28;87200;-45
2021/09/11 00:24:32;;;;;;;;;;;18.40;56.30;;;;;;5039144;28;87597;-45
2021/09/11 00:26:58;;;;;;;;;;;18.40;56.30;;;;;;5040222;28;89124;-45
2021/09/11 00:29:23;;;;;;;;;;;18.40;56.30;;;;;;5040051;28;89510;-45
2021/09/11 00:31:49;;;;;;;;;;;18.40;56.30;;;;;;5043228;28;88321;-45
2021/09/11 00:34:14;;;;;;;;;;;18.40;56.30;;;;;;5042323;28;87091;-45
2021/09/11 00:36:40;;;;;;;;;;;18.30;56.30;;;;;;5042168;28;87127;-45
2021/09/11 00:39:05;;;;;;;;;;;18.30;56.30;;;;;;5041092;28;88198;-45
2021/09/11 00:41:31;;;;;;;;;;;18.30;56.30;;;;;;5040600;28;87204;-45
2021/09/11 00:43:56;;;;;;;;;;;18.30;56.30;;;;;;5040176;28;89532;-45
2021/09/11 00:46:22;;;;;;;;;;;18.30;56.30;;;;;;5039483;28;88719;-46
2021/09/11 00:48:47;;;;;;;;;;;18.30;56.30;;;;;;5042846;28;87127;-45
2021/09/11 00:51:13;;;;;;;;;;;18.30;56.60;;;;;;5039915;28;89365;-45
2021/09/11 00:53:39;;;;;;;;;;;18.30;56.20;;;;;;5040421;28;87088;-45
2021/09/11 00:56:05;;;;;;;;;;;18.20;56.20;;;;;;5039258;28;89303;-46
2021/09/11 00:58:30;;;;;;;;;;;18.20;56.20;;;;;;5037919;28;88397;-45
2021/09/11 01:00:56;;;;;;;;;;;18.20;56.20;;;;;;5038441;28;88678;-45
2021/09/11 01:03:22;;;;;;;;;;;18.20;56.20;;;;;;5041130;28;88644;-45
2021/09/11 01:05:47;;;;;;;;;;;18.20;56.20;;;;;;5041657;28;88768;-45
2021/09/11 01:08:13;;;;;;;;;;;18.20;56.20;;;;;;5046362;28;86420;-45
2021/09/11 01:10:39;;;;;;;;;;;18.20;56.10;;;;;;5041513;28;87599;-45
2021/09/11 01:13:05;;;;;;;;;;;18.20;56.10;;;;;;5041973;28;87216;-45
2021/09/11 01:15:34;;;;;;;;;;;18.20;56.10;;;;;;5041630;28;88106;-45
2021/09/11 01:18:00;;;;;;;;;;;18.20;56.10;;;;;;5042366;28;87193;-45
2021/09/11 01:20:26;;;;;;;;;;;18.20;56.10;;;;;;5041088;28;87107;-45
2021/09/11 01:22:51;;;;;;;;;;;18.10;56.00;;;;;;5040134;28;88134;-45
2021/09/11 01:25:17;;;;;;;;;;;18.10;56.10;;;;;;5040196;28;88425;-45
2021/09/11 01:27:43;;;;;;;;;;;18.10;56.20;;;;;;5041219;28;87202;-45
2021/09/11 01:30:11;;;;;;;;;;;18.10;56.10;;;;;;5043475;28;87533;-45
2021/09/11 01:32:37;;;;;;;;;;;18.10;56.10;;;;;;5042549;28;86416;-45
2021/09/11 01:35:03;;;;;;;;;;;18.10;56.10;;;;;;5041797;28;88064;-45
2021/09/11 01:37:28;;;;;;;;;;;18.00;56.10;;;;;;5039919;28;89134;-45
2021/09/11 01:39:54;;;;;;;;;;;18.00;56.00;;;;;;5039295;28;88107;-45
2021/09/11 01:42:21;;;;;;;;;;;18.00;56.10;;;;;;5038666;28;88544;-45
2021/09/11 01:44:56;;;;;;;;;;;18.00;56.00;;;;;;5038654;28;89890;-45
2021/09/11 01:47:22;;;;;;;;;;;18.00;56.00;;;;;;5041830;28;87144;-45
2021/09/11 01:49:48;;;;;;;;;;;18.00;56.10;;;;;;5042091;28;87825;-45
2021/09/11 01:52:13;;;;;;;;;;;17.90;56.10;;;;;;5044272;28;89707;-45
2021/09/11 01:54:39;;;;;;;;;;;18.00;56.10;;;;;;5041891;27;87657;-45
2021/09/11 01:57:06;;;;;;;;;;;18.00;56.10;;;;;;5040845;28;86440;-45
2021/09/11 01:59:32;;;;;;;;;;;17.90;56.10;;;;;;5039903;28;87171;-45
2021/09/11 02:01:57;;;;;;;;;;;17.90;56.00;;;;;;5040165;28;87153;-45
2021/09/11 02:04:23;;;;;;;;;;;17.90;56.00;;;;;;5040344;28;88838;-45
2021/09/11 02:06:49;;;;;;;;;;;17.90;56.00;;;;;;5040450;28;88137;-45
2021/09/11 02:09:14;;;;;;;;;;;17.80;56.00;;;;;;5039117;28;88821;-45
2021/09/11 02:11:40;;;;;;;;;;;17.80;56.00;;;;;;5037825;28;88124;-45
2021/09/11 02:14:05;;;;;;;;;;;17.80;56.10;;;;;;5040308;28;87137;-45
2021/09/11 02:16:31;;;;;;;;;;;17.80;56.10;;;;;;5038298;28;88282;-45
2021/09/11 02:18:56;;;;;;;;;;;17.80;56.00;;;;;;5039941;28;87167;-45
2021/09/11 02:21:22;;;;;;;;;;;17.80;56.00;;;;;;5041538;28;86403;-46
2021/09/11 02:23:48;;;;;;;;;;;17.80;55.90;;;;;;5040422;28;89474;-45
2021/09/11 02:26:14;;;;;;;;;;;17.70;56.00;;;;;;5041322;28;87201;-45
2021/09/11 02:28:39;;;;;;;;;;;17.70;56.00;;;;;;5038864;28;88469;-45
2021/09/11 02:31:05;;;;;;;;;;;17.80;56.00;;;;;;5036736;28;88791;-45
2021/09/11 02:33:30;;;;;;;;;;;17.70;55.90;;;;;;5036443;28;87205;-45
2021/09/11 02:35:56;;;;;;;;;;;17.70;56.00;;;;;;5040467;28;87215;-45
2021/09/11 02:38:21;;;;;;;;;;;17.70;56.10;;;;;;5039209;28;87119;-45
2021/09/11 02:40:47;;;;;;;;;;;17.60;55.90;;;;;;5040115;28;89003;-47
2021/09/11 02:43:12;;;;;;;;;;;17.60;56.00;;;;;;5040858;28;88097;-45
2021/09/11 02:45:38;;;;;;;;;;;17.60;56.00;;;;;;5038740;28;86421;-45
2021/09/11 02:48:04;;;;;;;;;;;17.60;55.90;;;;;;5037097;28;87360;-45
2021/09/11 02:50:29;;;;;;;;;;;17.60;56.00;;;;;;5037743;28;87705;-45
2021/09/11 02:52:55;;;;;;;;;;;17.60;56.00;;;;;;5038373;28;88177;-45
2021/09/11 02:55:20;;;;;;;;;;;17.50;56.00;;;;;;5042938;28;88620;-45
2021/09/11 02:57:46;;;;;;;;;;;17.50;55.90;;;;;;5040482;28;87253;-45
2021/09/11 03:00:11;;;;;;;;;;;17.50;56.60;;;;;;5037116;28;88460;-45
2021/09/11 03:02:37;;;;;;;;;;;17.50;56.00;;;;;;5037064;28;88252;-45
2021/09/11 03:05:03;;;;;;;;;;;17.50;56.00;;;;;;5036910;28;87190;-45
2021/09/11 03:07:29;;;;;;;;;;;17.50;55.90;;;;;;5035758;27;87205;-44
2021/09/11 03:09:55;;;;;;;;;;;17.50;55.90;;;;;;5038267;28;86756;-45
2021/09/11 03:12:20;;;;;;;;;;;17.50;56.00;;;;;;5039236;28;87178;-45
2021/09/11 03:14:46;;;;;;;;;;;17.40;56.00;;;;;;5040614;28;87166;-45
2021/09/11 03:17:11;;;;;;;;;;;17.40;55.90;;;;;;5040648;28;89762;-45
2021/09/11 03:19:37;;;;;;;;;;;17.40;56.00;;;;;;5036048;28;89656;-45
2021/09/11 03:22:02;;;;;;;;;;;17.40;56.60;;;;;;5037030;28;87504;-45
2021/09/11 03:24:28;;;;;;;;;;;17.40;56.00;;;;;;5038613;28;87124;-45
2021/09/11 03:26:54;;;;;;;;;;;17.30;56.00;;;;;;5039162;28;88625;-45
2021/09/11 03:29:19;;;;;;;;;;;17.30;56.00;;;;;;5040325;28;88766;-45
2021/09/11 03:31:45;;;;;;;;;;;17.30;56.00;;;;;;5038247;28;88712;-45
2021/09/11 03:34:10;;;;;;;;;;;17.30;56.10;;;;;;5037867;28;87569;-45
2021/09/11 03:36:36;;;;;;;;;;;17.30;56.00;;;;;;5035371;28;89432;-45
2021/09/11 03:39:01;;;;;;;;;;;17.30;56.10;;;;;;5038836;28;87159;-44
2021/09/11 03:41:27;;;;;;;;;;;17.30;56.00;;;;;;5035839;28;88895;-45
2021/09/11 03:43:52;;;;;;;;;;;17.30;56.00;;;;;;5038179;28;87185;-45
2021/09/11 03:46:18;;;;;;;;;;;17.20;56.10;;;;;;5039323;28;87622;-45
2021/09/11 03:48:44;;;;;;;;;;;17.20;56.10;;;;;;5040090;28;88810;-45
2021/09/11 03:51:09;;;;;;;;;;;17.20;56.00;;;;;;5037237;28;88695;-45
2021/09/11 03:53:35;;;;;;;;;;;17.20;56.10;;;;;;5036112;28;87592;-45
2021/09/11 03:56:00;;;;;;;;;;;17.20;56.00;;;;;;5036990;28;88260;-45
2021/09/11 03:58:26;;;;;;;;;;;17.20;55.90;;;;;;5039069;28;86479;-45
2021/09/11 04:00:51;;;;;;;;;;;17.10;56.00;;;;;;5042261;28;87197;-45
2021/09/11 04:03:17;;;;;;;;;;;17.10;56.10;;;;;;5038820;28;87716;-45
2021/09/11 04:05:42;;;;;;;;;;;17.10;56.10;;;;;;5035320;28;89782;-44
2021/09/11 04:08:08;;;;;;;;;;;17.10;56.20;;;;;;5035719;28;87825;-45
2021/09/11 04:10:33;;;;;;;;;;;17.10;56.10;;;;;;5036290;28;87130;-45
2021/09/11 04:12:59;;;;;;;;;;;17.10;56.10;;;;;;5037263;28;88136;-45
2021/09/11 04:15:25;;;;;;;;;;;17.00;56.10;;;;;;5038018;28;89006;-44
2021/09/11 04:17:50;;;;;;;;;;;17.00;56.10;;;;;;5039453;28;87205;-45
2021/09/11 04:20:16;;;;;;;;;;;17.00;56.00;;;;;;5041263;28;89703;-47
2021/09/11 04:22:41;;;;;;;;;;;17.00;56.00;;;;;;5041565;28;89761;-45
2021/09/11 04:25:07;;;;;;;;;;;17.00;56.10;;;;;;5040011;28;87157;-45
2021/09/11 04:27:33;;;;;;;;;;;16.90;56.10;;;;;;5040801;28;88063;-45
2021/09/11 04:29:58;;;;;;;;;;;17.00;56.20;;;;;;5041453;28;88158;-44
2021/09/11 04:32:24;;;;;;;;;;;16.90;56.10;;;;;;5042669;28;89904;-45
2021/09/11 04:34:49;;;;;;;;;;;16.90;56.00;;;;;;5041798;28;88039;-45
2021/09/11 04:37:15;;;;;;;;;;;16.90;56.10;;;;;;5041228;28;87203;-45
2021/09/11 04:39:41;;;;;;;;;;;16.90;56.10;;;;;;5039839;28;88944;-44
2021/09/11 04:42:07;;;;;;;;;;;16.90;56.10;;;;;;5038243;28;87706;-45
2021/09/11 04:44:32;;;;;;;;;;;16.90;56.10;;;;;;5041719;28;87117;-45
2021/09/11 04:46:58;;;;;;;;;;;16.90;56.70;;;;;;5039280;28;86929;-45
2021/09/11 04:49:23;;;;;;;;;;;16.90;56.10;;;;;;5038462;28;87162;-45
2021/09/11 04:51:49;;;;;;;;;;;16.90;56.00;;;;;;5038792;28;88637;-44
2021/09/11 04:54:14;;;;;;;;;;;16.80;56.00;;;;;;5037152;28;90539;-44
2021/09/11 04:56:40;;;;;;;;;;;16.80;56.00;;;;;;5038523;28;88668;-45
2021/09/11 04:59:05;;;;;;;;;;;16.80;56.20;;;;;;5038050;28;88700;-44
2021/09/11 05:01:31;;;;;;;;;;;16.80;56.20;;;;;;5038489;28;89660;-45
2021/09/11 05:03:56;;;;;;;;;;;16.80;56.10;;;;;;5044454;28;88705;-45
2021/09/11 05:06:22;;;;;;;;;;;16.80;56.10;;;;;;5041589;28;88221;-45
2021/09/11 05:08:48;;;;;;;;;;;16.80;56.10;;;;;;5041730;28;88537;-45
2021/09/11 05:11:13;;;;;;;;;;;16.80;56.10;;;;;;5043025;28;86864;-45
2021/09/11 05:13:39;;;;;;;;;;;16.80;56.20;;;;;;5041100;28;88233;-45
2021/09/11 05:16:04;;;;;;;;;;;16.80;56.10;;;;;;5041914;28;87181;-45
2021/09/11 05:18:32;;;;;;;;;;;16.80;56.10;;;;;;5040236;28;89743;-44
2021/09/11 05:21:02;;;;;;;;;;;16.80;56.10;;;;;;5037405;27;88484;-44
2021/09/11 05:23:28;;;;;;;;;;;16.80;56.10;;;;;;5038674;28;87176;-45
2021/09/11 05:25:53;;;;;;;;;;;16.80;56.00;;;;;;5040796;28;88132;-45
2021/09/11 05:28:19;;;;;;;;;;;16.80;56.00;;;;;;5037332;28;88832;-44
2021/09/11 05:30:44;;;;;;;;;;;16.70;56.00;;;;;;5038596;28;88731;-44
2021/09/11 05:33:10;;;;;;;;;;;16.80;56.10;;;;;;5041022;28;88085;-45
2021/09/11 05:35:35;;;;;;;;;;;16.80;56.00;;;;;;5040487;28;87265;-44
2021/09/11 05:38:01;;;;;;;;;;;16.70;55.90;;;;;;5042167;28;88179;-44
2021/09/11 05:40:26;;;;;;;;;;;16.70;56.00;;;;;;5041521;28;87942;-44
2021/09/11 05:42:52;;;;;;;;;;;16.70;56.00;;;;;;5041426;28;88049;-44
2021/09/11 05:45:17;;;;;;;;;;;16.70;56.00;;;;;;5041489;28;89746;-45
2021/09/11 05:47:43;;;;;;;;;;;16.80;56.00;;;;;;5043505;28;89432;-44
2021/09/11 05:50:10;;;;;;;;;;;16.70;56.00;;;;;;5041515;28;87751;-44
2021/09/11 05:52:36;;;;;;;;;;;16.70;56.00;;;;;;5039276;28;89258;-44
2021/09/11 05:55:01;;;;;;;;;;;16.70;56.10;;;;;;5039082;28;87167;-44
2021/09/11 05:57:27;;;;;;;;;;;16.70;56.10;;;;;;5040151;28;87213;-44
2021/09/11 05:59:53;;;;;;;;;;;16.70;56.20;;;;;;5041712;28;87696;-45
2021/09/11 06:02:18;;;;;;;;;;;16.70;56.10;;;;;;5041123;28;87153;-45
2021/09/11 06:04:44;;;;;;;;;;;16.70;56.20;;;;;;5040775;28;87474;-45
2021/09/11 06:07:09;;;;;;;;;;;16.70;56.10;;;;;;5038958;28;89291;-44
2021/09/11 06:09:35;;;;;;;;;;;16.70;56.10;;;;;;5043127;28;87135;-44
2021/09/11 06:12:00;;;;;;;;;;;16.70;56.10;;;;;;5039246;28;88593;-45
2021/09/11 06:14:26;;;;;;;;;;;16.70;56.10;;;;;;5040008;28;87242;-45
2021/09/11 06:16:51;;;;;;;;;;;16.70;56.10;;;;;;5039649;28;87117;-44
2021/09/11 06:19:17;;;;;;;;;;;16.70;56.10;;;;;;5038828;28;88143;-44
2021/09/11 06:21:42;;;;;;;;;;;16.70;56.10;;;;;;5039438;28;87153;-45
2021/09/11 06:24:08;;;;;;;;;;;16.70;56.10;;;;;;5039284;28;87262;-45
2021/09/11 06:26:34;;;;;;;;;;;16.70;56.30;;;;;;5038072;28;89361;-44
2021/09/11 06:28:59;;;;;;;;;;;16.70;56.40;;;;;;5038506;28;87252;-45
2021/09/11 06:31:25;;;;;;;;;;;16.70;56.30;;;;;;5039817;28;88096;-45
2021/09/11 06:33:50;;;;;;;;;;;16.70;56.30;;;;;;5037036;28;87210;-45
2021/09/11 06:36:16;;;;;;;;;;;16.70;56.30;;;;;;5037188;28;87587;-45
2021/09/11 06:38:42;;;;;;;;;;;16.70;56.40;;;;;;5037845;28;87210;-45
2021/09/11 06:41:07;;;;;;;;;;;16.70;56.30;;;;;;5036518;28;87122;-44
2021/09/11 06:43:33;;;;;;;;;;;16.60;56.40;;;;;;5036619;28;87977;-44
2021/09/11 06:45:58;;;;;;;;;;;16.60;56.50;;;;;;5036518;28;88499;-44
2021/09/11 06:48:24;;;;;;;;;;;16.60;56.50;;;;;;5036661;28;88168;-45
2021/09/11 06:50:49;;;;;;;;;;;16.60;56.50;;;;;;5038055;28;88905;-44
2021/09/11 06:53:15;;;;;;;;;;;16.60;57.10;;;;;;5043591;28;88328;-45
2021/09/11 06:55:40;;;;;;;;;;;16.60;56.50;;;;;;5040314;28;88152;-44
2021/09/11 06:58:06;;;;;;;;;;;16.60;56.40;;;;;;5039502;28;89139;-45
2021/09/11 07:00:31;;;;;;;;;;;16.70;56.50;;;;;;5040182;28;87219;-44
2021/09/11 07:02:57;;;;;;;;;;;16.60;56.40;;;;;;5039903;28;88218;-44
2021/09/11 07:05:23;;;;;;;;;;;16.60;56.50;;;;;;5037981;28;88617;-44
2021/09/11 07:07:48;;;;;;;;;;;16.60;56.50;;;;;;5040719;28;87209;-45
2021/09/11 07:10:14;;;;;;;;;;;16.70;56.60;;;;;;5039907;28;87861;-44
2021/09/11 07:12:39;;;;;;;;;;;16.60;56.60;;;;;;5041755;28;88799;-44
2021/09/11 07:15:05;;;;;;;;;;;16.70;56.50;;;;;;5038270;28;87107;-44
2021/09/11 07:17:31;;;;;;;;;;;16.70;56.40;;;;;;5036329;28;87115;-45
2021/09/11 07:19:56;;;;;;;;;;;16.70;56.30;;;;;;5035560;28;88091;-44
2021/09/11 07:22:22;;;;;;;;;;;16.70;56.40;;;;;;5037340;28;89745;-44
2021/09/11 07:24:48;;;;;;;;;;;16.70;56.40;;;;;;5040757;28;88060;-44
2021/09/11 07:27:13;;;;;;;;;;;16.70;56.50;;;;;;5040265;28;87158;-44
2021/09/11 07:29:39;;;;;;;;;;;16.60;56.50;;;;;;5039169;28;88854;-45
2021/09/11 07:32:05;;;;;;;;;;;16.60;56.60;;;;;;5039207;28;88927;-45
2021/09/11 07:34:31;;;;;;;;;;;16.60;56.60;;;;;;5041069;27;87174;-45
2021/09/11 07:36:56;;;;;;;;;;;16.60;56.70;;;;;;5037513;28;86806;-45
2021/09/11 07:39:22;;;;;;;;;;;16.70;56.70;;;;;;5036522;28;87126;-44
2021/09/11 07:41:47;;;;;;;;;;;16.60;56.60;;;;;;5035813;28;87606;-44
2021/09/11 07:44:13;;;;;;;;;;;16.60;56.60;;;;;;5036832;28;90112;-45
2021/09/11 07:46:38;;;;;;;;;;;16.70;57.20;;;;;;5039860;28;88547;-44
2021/09/11 07:49:04;;;;;;;;;;;16.70;56.60;;;;;;5040024;28;89536;-45
2021/09/11 07:51:30;;;;;;;;;;;16.60;56.60;;;;;;5039114;28;88374;-45
2021/09/11 07:53:55;;;;;;;;;;;16.60;56.60;;;;;;5040116;28;87137;-44
2021/09/11 07:56:21;;;;;;;;;;;16.70;56.70;;;;;;5045647;28;87457;-44
2021/09/11 07:58:47;;;;;;;;;;;16.70;56.70;;;;;;5043675;28;87149;-45
2021/09/11 08:01:12;;;;;;;;;;;16.70;56.50;;;;;;5043532;28;88042;-44
2021/09/11 08:03:38;;;;;;;;;;;16.70;56.60;;;;;;5042764;28;88332;-44
2021/09/11 08:06:07;;;;;;;;;;;16.70;56.70;;;;;;5043005;28;87105;-44
2021/09/11 08:08:36;;;;;;;;;;;16.70;56.60;;;;;;5043120;28;88354;-45
2021/09/11 08:11:02;;;;;;;;;;;16.70;56.60;;;;;;5038811;28;89060;-45
2021/09/11 08:13:27;;;;;;;;;;;16.70;56.70;;;;;;5039239;28;87188;-44
2021/09/11 08:15:53;;;;;;;;;;;16.70;56.70;;;;;;5038932;28;88860;-45
2021/09/11 08:18:18;;;;;;;;;;;16.70;56.60;;;;;;5043718;28;88642;-45
2021/09/11 08:20:44;;;;;;;;;;;16.70;56.70;;;;;;5043697;28;87140;-45
2021/09/11 08:23:09;;;;;;;;;;;16.70;56.60;;;;;;5042618;28;88224;-44
2021/09/11 08:25:35;;;;;;;;;;;16.70;56.70;;;;;;5042481;28;86379;-45
2021/09/11 08:28:01;;;;;;;;;;;16.70;56.80;;;;;;5041407;28;87150;-44
2021/09/11 08:30:26;;;;;;;;;;;16.60;56.80;;;;;;5039836;28;89484;-45
2021/09/11 08:32:52;;;;;;;;;;;16.70;56.80;;;;;;5039700;28;88055;-45
2021/09/11 08:35:17;;;;;;;;;;;16.70;56.80;;;;;;5040592;28;88475;-45
2021/09/11 08:37:44;;;;;;;;;;;16.80;56.70;;;;;;5040329;28;88167;-46
2021/09/11 08:40:10;;;;;;;;;;;16.70;56.70;;;;;;5042377;28;87231;-45
2021/09/11 08:42:35;;;;;;;;;;;16.80;56.80;;;;;;5039231;28;90211;-45
2021/09/11 08:45:01;;;;;;;;;;;16.70;56.70;;;;;;5039250;28;87162;-45
2021/09/11 08:47:26;;;;;;;;;;;16.80;56.70;;;;;;5038669;28;87204;-45
2021/09/11 08:49:52;;;;;;;;;;;16.80;56.80;;;;;;5038591;28;88593;-45
2021/09/11 08:52:17;;;;;;;;;;;16.70;56.70;;;;;;5041980;28;88790;-45
2021/09/11 08:54:43;;;;;;;;;;;16.80;56.90;;;;;;5042994;28;87522;-45
2021/09/11 08:57:35;;;;;;;;;;;16.70;56.80;;;;;;5041153;28;89135;-44
2021/09/11 09:00:03;;;;;;;;;;;16.80;56.80;;;;;;5038588;27;87125;-45
2021/09/11 09:02:30;;;;;;;;;;;16.80;56.80;;;;;;5044605;28;88588;-44
2021/09/11 09:04:59;;;;;;;;;;;16.80;56.70;;;;;;5041175;28;87193;-45
2021/09/11 09:07:29;;;;;;;;;;;16.80;56.90;;;;;;5042177;28;87606;-45
2021/09/11 09:09:58;;;;;;;;;;;16.80;56.70;;;;;;5039249;28;89375;-45
2021/09/11 09:12:24;;;;;;;;;;;16.80;56.80;;;;;;5039028;28;87170;-45
2021/09/11 09:14:59;;;;;;;;;;;16.80;56.70;;;;;;5038589;28;87294;-45
2021/09/11 09:17:48;;;;;;;;;;;16.90;56.70;;;;;;5037713;28;87305;-45
2021/09/11 09:20:23;;;;;;;;;;;16.80;56.60;;;;;;5038564;27;87154;-45
2021/09/11 09:23:17;;;;;;;;;;;16.90;56.70;;;;;;5040018;28;88284;-44
2021/09/11 09:25:43;;;;;;;;;;;16.90;56.70;;;;;;5038992;27;87130;-45
2021/09/11 09:28:10;;;;;;;;;;;16.90;56.70;;;;;;5041355;28;87328;-45
2021/09/11 09:30:41;;;;;;;;;;;16.90;56.60;;;;;;5040009;28;88272;-44
2021/09/11 09:33:07;;;;;;;;;;;16.90;56.60;;;;;;5041997;28;87642;-45
2021/09/11 09:35:33;;;;;;;;;;;16.90;56.60;;;;;;5041753;28;87123;-45
2021/09/11 09:38:06;;;;;;;;;;;16.90;57.10;;;;;;5040950;28;87179;-44
2021/09/11 09:40:32;;;;;;;;;;;17.00;56.50;;;;;;5038955;28;87921;-45
2021/09/11 09:42:58;;;;;;;;;;;17.00;56.70;;;;;;5037692;28;88469;-45
2021/09/11 09:45:33;;;;;;;;;;;17.00;56.70;;;;;;5040348;28;88462;-45
2021/09/11 09:48:06;;;;;;;;;;;17.00;56.60;;;;;;5037167;28;89366;-45
2021/09/11 09:50:34;;;;;;;;;;;17.00;56.50;;;;;;5041247;28;87558;-45
2021/09/11 09:52:59;;;;;;;;;;;17.10;56.50;;;;;;5040654;28;87148;-45
2021/09/11 09:55:25;;;;;;;;;;;17.10;56.50;;;;;;5041246;28;89254;-45
2021/09/11 09:57:51;;;;;;;;;;;17.00;56.50;;;;;;5041908;28;87909;-45
2021/09/11 10:00:17;;;;;;;;;;;17.10;56.70;;;;;;5039121;28;88002;-45
2021/09/11 10:02:42;;;;;;;;;;;17.10;56.50;;;;;;5037187;28;87991;-45
2021/09/11 10:05:12;;;;;;;;;;;17.10;56.60;;;;;;5038584;28;87595;-45
2021/09/11 10:07:38;;;;;;;;;;;17.10;56.40;;;;;;5044109;28;87139;-44
2021/09/11 10:10:04;;;;;;;;;;;17.20;56.30;;;;;;5039234;28;87130;-45
2021/09/11 10:12:34;;;;;;;;;;;17.20;56.30;;;;;;5039410;28;88120;-45
2021/09/11 10:15:26;;;;;;;;;;;17.20;56.40;;;;;;5041443;28;88957;-45
2021/09/11 10:17:52;;;;;;;;;;;17.20;56.30;;;;;;5037519;27;89331;-45
2021/09/11 10:20:17;;;;;;;;;;;17.20;56.30;;;;;;5040420;28;87131;-45
2021/09/11 10:23:02;;;;;;;;;;;17.30;56.40;;;;;;5041400;28;87575;-46
2021/09/11 10:25:40;;;;;;;;;;;17.20;56.30;;;;;;5037283;27;87609;-45
2021/09/11 10:28:15;;;;;;;;;;;17.30;56.50;;;;;;5040958;28;88023;-45
2021/09/11 10:31:01;;;;;;;;;;;17.30;56.40;;;;;;5044425;28;88389;-45
2021/09/11 10:33:48;;;;;;;;;;;17.30;56.30;;;;;;5035936;27;88679;-45
2021/09/11 10:36:29;;;;;;;;;;;17.30;56.40;;;;;;5039223;28;88248;-44
2021/09/11 10:39:06;;;;;;;;;;;17.30;56.50;;;;;;5037345;28;88164;-45
2021/09/11 10:41:31;;;;;;;;;;;17.40;56.30;;;;;;5037067;28;87223;-45
2021/09/11 10:44:07;;;;;;;;;;;17.40;56.20;;;;;;5038215;28;87145;-45
2021/09/11 10:46:52;;;;;;;;;;;17.40;56.20;;;;;;5039222;28;88154;-45
2021/09/11 10:49:26;;;;;;;;;;;17.40;56.20;;;;;;5041190;28;87270;-45
2021/09/11 10:52:11;;;;;;;;;;;17.40;56.20;;;;;;5036847;28;89118;-45
2021/09/11 10:54:43;;;;;;;;;;;17.50;56.30;;;;;;5041759;28;89848;-45
2021/09/11 10:57:12;;;;;;;;;;;17.50;56.30;;;;;;5038663;28;88034;-45
2021/09/11 10:59:41;;;;;;;;;;;17.50;56.30;;;;;;5040510;28;89255;-45
2021/09/11 11:02:07;;;;;;;;;;;17.50;56.60;;;;;;5038509;28;87214;-45
2021/09/11 11:04:33;;;;;;;;;;;17.60;56.10;;;;;;5037511;28;89195;-45
2021/09/11 11:07:00;;;;;;;;;;;17.60;55.90;;;;;;5038409;28;89931;-45
2021/09/11 11:09:27;;;;;;;;;;;17.60;55.90;;;;;;5036398;28;87161;-45
2021/09/11 11:11:54;;;;;;;;;;;17.60;55.70;;;;;;5039699;28;89464;-45
2021/09/11 11:14:20;;;;;;;;;;;17.60;55.80;;;;;;5038701;28;87642;-45
2021/09/11 11:16:50;;;;;;;;;;;17.70;55.80;;;;;;5040982;28;87142;-45
2021/09/11 11:19:22;;;;;;;;;;;17.70;55.70;;;;;;5039657;28;89579;-45
2021/09/11 11:21:52;;;;;;;;;;;17.70;55.80;;;;;;5039163;28;86391;-45
2021/09/11 11:24:17;;;;;;;;;;;17.70;55.80;;;;;;5039342;28;87956;-45
2021/09/11 11:26:43;;;;;;;;;;;17.70;56.50;;;;;;5040339;28;89668;-45
2021/09/11 11:29:10;;;;;;;;;;;17.70;55.80;;;;;;5041474;27;88147;-45
2021/09/11 11:31:42;;;;;;;;;;;17.80;55.70;;;;;;5041237;28;87307;-45
2021/09/11 11:34:07;;;;;;;;;;;17.80;55.50;;;;;;5039752;28;88953;-45
2021/09/11 11:36:33;;;;;;;;;;;17.80;55.40;;;;;;5043344;28;87149;-45
2021/09/11 11:39:16;;;;;;;;;;;17.80;55.60;;;;;;5041229;28;89925;-45
2021/09/11 11:41:42;;;;;;;;;;;17.80;55.60;;;;;;5040115;28;88749;-45
2021/09/11 11:44:07;;;;;;;;;;;17.90;55.70;;;;;;5039679;28;87127;-45
2021/09/11 11:46:33;;;;;;;;;;;17.90;55.60;;;;;;5040795;28;87755;-45
2021/09/11 11:48:58;;;;;;;;;;;17.90;55.70;;;;;;5040644;28;88027;-45
2021/09/11 11:51:24;;;;;;;;;;;17.90;55.70;;;;;;5039997;28;88599;-45
2021/09/11 11:53:50;;;;;;;;;;;18.00;55.60;;;;;;5038261;28;88099;-46
2021/09/11 11:56:16;;;;;;;;;;;18.00;55.20;;;;;;5041031;28;88907;-45
2021/09/11 11:58:42;;;;;;;;;;;18.00;55.20;;;;;;5042218;28;87554;-45
2021/09/11 12:01:07;;;;;;;;;;;18.00;55.30;;;;;;5040570;28;87224;-45
2021/09/11 12:03:36;;;;;;;;;;;18.10;55.10;;;;;;5042020;28;87979;-45
2021/09/11 12:06:03;;;;;;;;;;;18.10;55.10;;;;;;5039333;28;89507;-45
2021/09/11 12:08:29;;;;;;;;;;;18.10;55.20;;;;;;5041051;28;88171;-45
2021/09/11 12:10:55;;;;;;;;;;;18.10;55.20;;;;;;5039471;28;88277;-45
2021/09/11 12:13:21;;;;;;;;;;;18.10;55.20;;;;;;5038890;28;87241;-45
2021/09/11 12:15:48;;;;;;;;;;;18.10;55.20;;;;;;5043628;28;87171;-45
2021/09/11 12:18:15;;;;;;;;;;;18.10;55.20;;;;;;5042523;28;88098;-45
2021/09/11 12:20:47;;;;;;;;;;;18.20;55.20;;;;;;5044772;28;89196;-45
2021/09/11 12:23:28;;;;;;;;;;;18.20;55.20;;;;;;5040871;28;87427;-45
2021/09/11 12:25:58;;;;;;;;;;;18.20;55.20;;;;;;5040968;28;87613;-45
2021/09/11 12:28:42;;;;;;;;;;;18.20;54.70;;;;;;5041290;28;87143;-45
2021/09/11 12:31:14;;;;;;;;;;;18.30;54.90;;;;;;5042388;27;87279;-45
2021/09/11 12:33:41;;;;;;;;;;;18.30;55.00;;;;;;5040986;28;88218;-45
2021/09/11 12:36:19;;;;;;;;;;;18.30;54.90;;;;;;5027311;28;89392;-45
2021/09/11 12:38:45;;;;;;;;;;;18.30;49.30;;;;;;4998325;28;88221;-46
2021/09/11 12:41:10;;;;;;;;;;;18.40;43.70;;;;;;4997598;28;87547;-44
2021/09/11 12:43:36;;;;;;;;;;;18.60;44.90;;;;;;5001456;28;89645;-45
2021/09/11 12:46:01;;;;;;;;;;;18.60;44.50;;;;;;4998668;28;87948;-46
2021/09/11 12:48:27;;;;;;;;;;;18.60;47.20;;;;;;5000307;28;87129;-46
2021/09/11 12:50:52;;;;;;;;;;;18.50;47.90;;;;;;5000988;28;87561;-45
2021/09/11 12:53:18;;;;;;;;;;;18.60;48.10;;;;;;5001818;28;87614;-45
2021/09/11 12:55:44;;;;;;;;;;;18.70;48.50;;;;;;5002777;28;87144;-45
2021/09/11 12:58:09;;;;;;;;;;;18.70;49.20;;;;;;5000662;28;87181;-46
2021/09/11 13:00:36;;;;;;;;;;;18.80;43.10;;;;;;4998429;28;86750;-47
2021/09/11 13:03:02;;;;;;;;;;;18.70;47.20;;;;;;5002150;28;88640;-47
2021/09/11 13:05:27;;;;;;;;;;;18.80;46.70;;;;;;5004034;28;88368;-46
2021/09/11 13:07:53;;;;;;;;;;;18.80;47.40;;;;;;5000316;28;88798;-47
2021/09/11 13:10:19;;;;;;;;;;;18.90;48.90;;;;;;4997912;28;89933;-46
2021/09/11 13:12:44;;;;;;;;;;;18.90;48.90;;;;;;4998420;28;89235;-46
2021/09/11 13:15:10;;;;;;;;;;;18.90;48.60;;;;;;4998983;28;87139;-46
2021/09/11 13:17:36;;;;;;;;;;;18.90;44.70;;;;;;4999686;28;87525;-49
2021/09/11 13:20:02;;;;;;;;;;;19.00;43.10;;;;;;5000501;28;87375;-45
2021/09/11 13:22:27;;;;;;;;;;;19.10;42.00;;;;;;5001336;28;87231;-52
2021/09/11 13:24:53;;;;;;;;;;;19.20;40.00;;;;;;5005501;28;86771;-49
2021/09/11 13:27:18;;;;;;;;;;;19.20;42.10;;;;;;4999060;28;87846;-49
2021/09/11 13:29:44;;;;;;;;;;;19.10;42.60;;;;;;4998241;28;88166;-51
2021/09/11 13:32:09;;;;;;;;;;;19.20;43.80;;;;;;4998150;28;88963;-49
2021/09/11 13:34:35;;;;;;;;;;;19.20;43.60;;;;;;4998395;28;87169;-49
2021/09/11 13:37:00;;;;;;;;;;;19.20;44.80;;;;;;4999254;28;88089;-49
2021/09/11 13:39:26;;;;;;;;;;;19.20;44.40;;;;;;4999335;28;88154;-49
2021/09/11 13:41:51;;;;;;;;;;;19.30;44.80;;;;;;4999018;28;87159;-49
2021/09/11 13:44:17;;;;;;;;;;;19.30;45.20;;;;;;5000092;28;87651;-55
2021/09/11 13:46:43;;;;;;;;;;;19.30;41.20;;;;;;5003841;28;87448;-52
2021/09/11 13:49:08;;;;;;;;;;;19.20;42.30;;;;;;5001880;28;87505;-54
2021/09/11 13:51:34;;;;;;;;;;;19.40;43.20;;;;;;4999411;28;87242;-55
2021/09/11 13:54:00;;;;;;;;;;;19.40;43.80;;;;;;4999264;28;87169;-55
2021/09/11 13:56:26;;;;;;;;;;;19.40;45.00;;;;;;4997648;28;88097;-54
2021/09/11 13:58:52;;;;;;;;;;;19.40;45.30;;;;;;4997027;28;87875;-47
2021/09/11 14:01:17;;;;;;;;;;;19.40;38.90;;;;;;4997390;28;87272;-54
2021/09/11 14:03:43;;;;;;;;;;;19.40;39.80;;;;;;4996996;28;88250;-55
2021/09/11 14:06:08;;;;;;;;;;;19.40;41.60;;;;;;4996992;28;88302;-58
2021/09/11 14:08:34;;;;;;;;;;;19.40;39.90;;;;;;4999754;28;88096;-56
2021/09/11 14:11:00;;;;;;;;;;;19.60;37.70;;;;;;4996571;28;91194;-60
2021/09/11 14:13:25;;;;;;;;;;;19.80;37.20;;;;;;4998461;28;86405;-54